Time;durP1;ratioP1;P1;durP2;ratioP2;P2;SDS_P1;SDS_P2;PMS_P1;PMS_P2;Temp;Humidity;BMP_temperature;BMP_pressure;BME280_temperature;BME280_humidity;BME280_pressure;Samples;Min_cycle;Max_cycle;Signal;HPM_P1;HPM_P2
2023/08/02 00:02:24;;;;;;;7.70;4.10;;;;;;;;;;5034296;28;20443;-73
2023/08/02 00:04:51;;;;;;;11.90;4.90;;;;;;;;;;5034495;28;20446;-73
2023/08/02 00:07:18;;;;;;;10.60;4.27;;;;;;;;;;5034933;28;20571;-73
2023/08/02 00:09:45;;;;;;;4.90;4.10;;;;;;;;;;5034679;28;20444;-73
2023/08/02 00:12:14;;;;;;;10.80;4.90;;;;;;;;;;5034144;28;20473;-73
2023/08/02 00:14:41;;;;;;;10.20;4.50;;;;;;;;;;5034314;28;20931;-73
2023/08/02 00:17:08;;;;;;;7.37;4.10;;;;;;;;;;5034462;28;20749;-73
2023/08/02 00:19:36;;;;;;;14.00;4.70;;;;;;;;;;5034878;28;20437;-73
2023/08/02 00:22:03;;;;;;;6.53;4.10;;;;;;;;;;5034097;28;20477;-73
2023/08/02 00:24:30;;;;;;;7.10;4.43;;;;;;;;;;5033744;28;20950;-72
2023/08/02 00:26:57;;;;;;;4.97;4.47;;;;;;;;;;5033731;28;21001;-73
2023/08/02 00:29:26;;;;;;;8.83;4.83;;;;;;;;;;5034336;28;20484;-73
2023/08/02 00:31:53;;;;;;;7.40;4.33;;;;;;;;;;5033925;28;20989;-74
2023/08/02 00:34:20;;;;;;;9.00;5.00;;;;;;;;;;5034157;28;20473;-73
2023/08/02 00:36:47;;;;;;;13.30;4.40;;;;;;;;;;5034020;28;20455;-73
2023/08/02 00:39:14;;;;;;;9.97;5.03;;;;;;;;;;5033647;28;20449;-73
2023/08/02 00:41:42;;;;;;;9.57;4.87;;;;;;;;;;5033759;28;20496;-73
2023/08/02 00:44:09;;;;;;;8.80;4.00;;;;;;;;;;5033961;28;20447;-73
2023/08/02 00:46:38;;;;;;;9.63;4.43;;;;;;;;;;5033638;28;20494;-73
2023/08/02 00:49:05;;;;;;;10.00;4.83;;;;;;;;;;5033381;28;21026;-74
2023/08/02 00:51:34;;;;;;;10.80;5.00;;;;;;;;;;5033787;28;20445;-73
2023/08/02 00:54:02;;;;;;;7.83;3.97;;;;;;;;;;5033839;28;20799;-73
2023/08/02 00:56:30;;;;;;;8.37;4.90;;;;;;;;;;5033614;28;20465;-73
2023/08/02 00:58:57;;;;;;;11.00;5.27;;;;;;;;;;5033222;28;20923;-73
2023/08/02 01:01:24;;;;;;;6.27;4.60;;;;;;;;;;5033664;28;20474;-73
2023/08/02 01:03:54;;;;;;;9.63;5.10;;;;;;;;;;5033005;28;20918;-73
2023/08/02 01:06:23;;;;;;;10.03;4.37;;;;;;;;;;5033160;28;20435;-73
2023/08/02 01:08:52;;;;;;;7.37;4.50;;;;;;;;;;5033200;28;20441;-73
2023/08/02 01:11:24;;;;;;;7.90;4.10;;;;;;;;;;5033411;28;20534;-73
2023/08/02 01:13:52;;;;;;;7.97;5.20;;;;;;;;;;5033444;28;20454;-70
2023/08/02 01:16:20;;;;;;;9.50;4.30;;;;;;;;;;5033565;28;20438;-73
2023/08/02 01:18:47;;;;;;;13.20;5.40;;;;;;;;;;5033200;28;20971;-73
2023/08/02 01:21:16;;;;;;;5.70;4.13;;;;;;;;;;5033768;28;20535;-73
2023/08/02 01:23:43;;;;;;;8.27;4.80;;;;;;;;;;5032905;28;20781;-73
2023/08/02 01:26:10;;;;;;;11.20;4.40;;;;;;;;;;5033012;28;20465;-73
2023/08/02 01:28:39;;;;;;;9.80;4.53;;;;;;;;;;5032693;28;21020;-73
2023/08/02 01:31:06;;;;;;;6.30;4.37;;;;;;;;;;5032847;28;20438;-73
2023/08/02 01:33:37;;;;;;;7.83;4.87;;;;;;;;;;5033014;28;20533;-73
2023/08/02 01:36:05;;;;;;;6.40;4.07;;;;;;;;;;5032870;28;20431;-73
2023/08/02 01:38:33;;;;;;;6.23;4.70;;;;;;;;;;5032913;28;20850;-73
2023/08/02 01:41:00;;;;;;;4.50;3.80;;;;;;;;;;5032694;28;20443;-73
2023/08/02 01:43:28;;;;;;;9.57;5.07;;;;;;;;;;5032880;28;20532;-73
2023/08/02 01:45:55;;;;;;;5.70;4.10;;;;;;;;;;5033176;28;20540;-73
2023/08/02 01:48:23;;;;;;;10.40;4.73;;;;;;;;;;5032806;28;20480;-73
2023/08/02 01:50:50;;;;;;;10.27;4.67;;;;;;;;;;5032890;28;20445;-74
2023/08/02 01:53:17;;;;;;;11.63;4.40;;;;;;;;;;5033289;28;20451;-73
2023/08/02 01:55:46;;;;;;;6.60;4.70;;;;;;;;;;5032664;28;20454;-73
2023/08/02 01:58:13;;;;;;;7.67;4.07;;;;;;;;;;5032736;28;20539;-73
2023/08/02 02:00:41;;;;;;;9.03;4.50;;;;;;;;;;5032614;28;20434;-73
2023/08/02 02:03:08;;;;;;;4.57;4.17;;;;;;;;;;5032835;28;20449;-73
2023/08/02 02:05:35;;;;;;;8.00;4.70;;;;;;;;;;5036707;28;20462;-73
2023/08/02 02:08:02;;;;;;;5.53;4.13;;;;;;;;;;5036812;28;20484;-73
2023/08/02 02:10:30;;;;;;;6.93;3.80;;;;;;;;;;5037311;28;20444;-73
2023/08/02 02:12:59;;;;;;;8.13;4.80;;;;;;;;;;5037378;28;20447;-73
2023/08/02 02:15:26;;;;;;;6.30;3.77;;;;;;;;;;5036902;28;20883;-73
2023/08/02 02:17:53;;;;;;;4.57;3.37;;;;;;;;;;5037700;28;20510;-73
2023/08/02 02:20:20;;;;;;;7.00;4.60;;;;;;;;;;5036901;28;20449;-73
2023/08/02 02:22:47;;;;;;;11.40;3.80;;;;;;;;;;5036736;28;20535;-73
2023/08/02 02:25:14;;;;;;;8.00;3.83;;;;;;;;;;5036277;28;20556;-73
2023/08/02 02:27:42;;;;;;;6.83;3.57;;;;;;;;;;5036527;28;20481;-73
2023/08/02 02:30:11;;;;;;;6.60;3.60;;;;;;;;;;5036093;28;20451;-73
2023/08/02 02:32:38;;;;;;;6.03;3.80;;;;;;;;;;5035915;28;20532;-73
2023/08/02 02:35:06;;;;;;;5.80;4.10;;;;;;;;;;5035782;28;20442;-73
2023/08/02 02:37:33;;;;;;;5.40;3.97;;;;;;;;;;5036351;28;20440;-73
2023/08/02 02:40:00;;;;;;;11.87;4.70;;;;;;;;;;5035923;28;20517;-73
2023/08/02 02:42:27;;;;;;;5.70;3.30;;;;;;;;;;5036124;28;20542;-73
2023/08/02 02:44:55;;;;;;;8.57;3.90;;;;;;;;;;5035950;28;20483;-73
2023/08/02 02:47:23;;;;;;;10.40;4.93;;;;;;;;;;5035984;28;20482;-73
2023/08/02 02:49:51;;;;;;;7.90;3.70;;;;;;;;;;5035693;28;20529;-73
2023/08/02 02:52:18;;;;;;;6.33;4.07;;;;;;;;;;5035819;28;20895;-73
2023/08/02 02:54:45;;;;;;;10.63;4.50;;;;;;;;;;5035835;28;20473;-73
2023/08/02 02:57:12;;;;;;;4.87;4.37;;;;;;;;;;5036092;28;20461;-73
2023/08/02 02:59:39;;;;;;;7.80;4.30;;;;;;;;;;5035727;28;20441;-73
2023/08/02 03:02:07;;;;;;;5.13;3.70;;;;;;;;;;5035985;28;20445;-73
2023/08/02 03:04:35;;;;;;;5.80;3.30;;;;;;;;;;5035733;28;20484;-73
2023/08/02 03:07:02;;;;;;;5.77;4.60;;;;;;;;;;5035549;28;20527;-73
2023/08/02 03:09:29;;;;;;;6.23;4.10;;;;;;;;;;5035563;28;20806;-73
2023/08/02 03:11:57;;;;;;;5.13;3.10;;;;;;;;;;5035787;28;20438;-73
2023/08/02 03:14:24;;;;;;;10.97;3.93;;;;;;;;;;5035129;28;20443;-73
2023/08/02 03:16:51;;;;;;;7.30;4.17;;;;;;;;;;5035588;28;20452;-73
2023/08/02 03:19:18;;;;;;;8.83;4.43;;;;;;;;;;5035388;28;20452;-73
2023/08/02 03:21:47;;;;;;;7.37;3.50;;;;;;;;;;5035563;28;20453;-73
2023/08/02 03:24:14;;;;;;;3.50;3.20;;;;;;;;;;5035607;28;20889;-73
2023/08/02 03:26:41;;;;;;;9.27;3.80;;;;;;;;;;5035333;28;20556;-73
2023/08/02 03:29:08;;;;;;;4.90;3.40;;;;;;;;;;5035125;28;20580;-73
2023/08/02 03:31:35;;;;;;;4.60;3.60;;;;;;;;;;5034946;28;20451;-71
2023/08/02 03:34:03;;;;;;;7.30;3.93;;;;;;;;;;5035067;28;20445;-73
2023/08/02 03:36:30;;;;;;;3.97;3.33;;;;;;;;;;5034708;28;20434;-74
2023/08/02 03:38:59;;;;;;;8.00;4.13;;;;;;;;;;5034812;28;20994;-73
2023/08/02 03:41:26;;;;;;;7.03;3.80;;;;;;;;;;5034719;28;20434;-74
2023/08/02 03:43:53;;;;;;;9.23;4.13;;;;;;;;;;5034964;28;20448;-73
2023/08/02 03:46:20;;;;;;;6.33;3.87;;;;;;;;;;5034798;28;20518;-73
2023/08/02 03:48:48;;;;;;;8.17;4.17;;;;;;;;;;5034806;28;20485;-73
2023/08/02 03:51:15;;;;;;;8.53;4.30;;;;;;;;;;5034651;28;20524;-73
2023/08/02 03:53:42;;;;;;;10.03;5.00;;;;;;;;;;5035265;28;20447;-73
2023/08/02 03:56:10;;;;;;;8.20;4.00;;;;;;;;;;5034444;28;20444;-73
2023/08/02 03:58:38;;;;;;;8.77;3.80;;;;;;;;;;5034252;28;20970;-73
2023/08/02 04:01:05;;;;;;;5.00;4.50;;;;;;;;;;5032827;28;20461;-74
2023/08/02 04:03:32;;;;;;;6.43;4.50;;;;;;;;;;5013767;28;20526;-73
2023/08/02 04:05:59;;;;;;;10.20;4.30;;;;;;;;;;5013635;28;20453;-73
2023/08/02 04:08:26;;;;;;;11.67;4.73;;;;;;;;;;5014219;28;20573;-74
2023/08/02 04:10:54;;;;;;;7.57;4.83;;;;;;;;;;5013826;28;20537;-73
2023/08/02 04:13:22;;;;;;;9.60;4.80;;;;;;;;;;5014151;28;20770;-73
2023/08/02 04:15:49;;;;;;;6.87;4.73;;;;;;;;;;5013953;28;20442;-73
2023/08/02 04:18:17;;;;;;;7.70;5.40;;;;;;;;;;5014194;28;20529;-73
2023/08/02 04:20:44;;;;;;;9.27;4.70;;;;;;;;;;5014156;28;20481;-73
2023/08/02 04:23:11;;;;;;;7.27;4.80;;;;;;;;;;5013898;28;20446;-73
2023/08/02 04:25:38;;;;;;;4.60;4.17;;;;;;;;;;5013693;28;20520;-73
2023/08/02 04:28:06;;;;;;;10.23;4.67;;;;;;;;;;5013980;28;20483;-72
2023/08/02 04:30:35;;;;;;;7.37;4.77;;;;;;;;;;5014441;28;20449;-73
2023/08/02 04:33:02;;;;;;;7.47;4.30;;;;;;;;;;5013758;28;21015;-73
2023/08/02 04:35:30;;;;;;;6.57;4.40;;;;;;;;;;5013771;28;20447;-73
2023/08/02 04:37:57;;;;;;;8.40;4.60;;;;;;;;;;5014143;28;20537;-73
2023/08/02 04:40:24;;;;;;;4.87;4.37;;;;;;;;;;5013975;28;20530;-73
2023/08/02 04:42:53;;;;;;;8.23;5.07;;;;;;;;;;5013635;28;21023;-73
2023/08/02 04:45:21;;;;;;;6.40;4.50;;;;;;;;;;5013767;28;20507;-73
2023/08/02 04:47:49;;;;;;;8.50;4.90;;;;;;;;;;5013946;28;20478;-73
2023/08/02 04:50:16;;;;;;;8.53;6.17;;;;;;;;;;5013979;28;20439;-78
2023/08/02 04:52:43;;;;;;;7.80;5.10;;;;;;;;;;5013513;28;20446;-78
2023/08/02 04:55:11;;;;;;;10.93;4.67;;;;;;;;;;5013683;28;20863;-73
2023/08/02 04:57:38;;;;;;;10.63;5.07;;;;;;;;;;5013858;28;20446;-73
2023/08/02 05:00:06;;;;;;;8.93;5.63;;;;;;;;;;5013821;28;20439;-73
2023/08/02 05:02:36;;;;;;;6.93;4.90;;;;;;;;;;5013015;28;20459;-73
2023/08/02 05:05:04;;;;;;;6.80;5.00;;;;;;;;;;5013804;28;20451;-73
2023/08/02 05:07:33;;;;;;;8.60;4.93;;;;;;;;;;5013418;28;20531;-73
2023/08/02 05:10:03;;;;;;;7.47;5.20;;;;;;;;;;5013586;28;20520;-73
2023/08/02 05:12:31;;;;;;;12.10;5.43;;;;;;;;;;5013513;28;20438;-73
2023/08/02 05:14:59;;;;;;;5.27;4.77;;;;;;;;;;5013638;28;20518;-73
2023/08/02 05:17:28;;;;;;;12.83;5.60;;;;;;;;;;5013361;28;20448;-73
2023/08/02 05:19:55;;;;;;;13.63;5.13;;;;;;;;;;5013331;28;20472;-74
2023/08/02 05:22:24;;;;;;;8.63;5.93;;;;;;;;;;5013058;28;20531;-73
2023/08/02 05:24:51;;;;;;;12.50;5.23;;;;;;;;;;5013227;28;20863;-73
2023/08/02 05:27:18;;;;;;;8.10;5.50;;;;;;;;;;5013290;28;20425;-73
2023/08/02 05:29:45;;;;;;;10.73;6.20;;;;;;;;;;5013050;28;20485;-73
2023/08/02 05:32:13;;;;;;;8.80;5.00;;;;;;;;;;5012844;28;20450;-73
2023/08/02 05:34:40;;;;;;;4.77;4.37;;;;;;;;;;5013672;28;20443;-73
2023/08/02 05:37:07;;;;;;;7.80;4.70;;;;;;;;;;5013398;28;20450;-73
2023/08/02 05:39:36;;;;;;;6.90;4.00;;;;;;;;;;5013328;28;20533;-74
2023/08/02 05:42:05;;;;;;;8.80;4.27;;;;;;;;;;5013022;28;20529;-73
2023/08/02 05:44:32;;;;;;;7.53;4.70;;;;;;;;;;5013197;28;20538;-73
2023/08/02 05:47:02;;;;;;;5.90;4.57;;;;;;;;;;5013187;28;20520;-73
2023/08/02 05:49:29;;;;;;;11.77;5.60;;;;;;;;;;5013230;28;20894;-73
2023/08/02 05:51:56;;;;;;;6.10;3.90;;;;;;;;;;5012911;28;20443;-73
2023/08/02 05:54:24;;;;;;;7.20;3.50;;;;;;;;;;5012861;28;20440;-73
2023/08/02 05:56:52;;;;;;;5.97;4.10;;;;;;;;;;5012472;28;20461;-73
2023/08/02 05:59:19;;;;;;;5.73;3.87;;;;;;;;;;5012887;28;20632;-74
2023/08/02 06:01:46;;;;;;;8.80;3.80;;;;;;;;;;5012718;28;20439;-74
2023/08/02 06:04:14;;;;;;;7.10;4.03;;;;;;;;;;5012994;28;20439;-73
2023/08/02 06:06:41;;;;;;;7.40;4.13;;;;;;;;;;5013000;28;20454;-73
2023/08/02 06:09:08;;;;;;;4.83;3.57;;;;;;;;;;5012611;28;20992;-74
2023/08/02 06:11:36;;;;;;;8.00;4.00;;;;;;;;;;5012349;28;20542;-73
2023/08/02 06:14:05;;;;;;;6.83;3.60;;;;;;;;;;5012829;28;20450;-73
2023/08/02 06:16:32;;;;;;;6.67;3.73;;;;;;;;;;5012603;28;20462;-73
2023/08/02 06:18:59;;;;;;;6.43;3.63;;;;;;;;;;5012512;28;20924;-73
2023/08/02 06:21:27;;;;;;;5.40;3.10;;;;;;;;;;5012086;28;20534;-73
2023/08/02 06:23:54;;;;;;;7.37;3.80;;;;;;;;;;5012267;28;20811;-73
2023/08/02 06:26:21;;;;;;;5.13;3.43;;;;;;;;;;5012479;28;20561;-73
2023/08/02 06:28:49;;;;;;;4.80;3.20;;;;;;;;;;5012690;28;20577;-73
2023/08/02 06:31:17;;;;;;;9.57;3.67;;;;;;;;;;5012319;28;20449;-73
2023/08/02 06:33:45;;;;;;;11.53;4.50;;;;;;;;;;5012225;28;20544;-73
2023/08/02 06:36:12;;;;;;;9.70;7.57;;;;;;;;;;5012252;28;20435;-72
2023/08/02 06:38:39;;;;;;;12.53;6.37;;;;;;;;;;5012441;28;20441;-73
2023/08/02 06:41:07;;;;;;;7.40;3.80;;;;;;;;;;5012612;28;20458;-73
2023/08/02 06:43:34;;;;;;;5.83;3.90;;;;;;;;;;5012244;28;20444;-73
2023/08/02 06:46:01;;;;;;;8.07;4.37;;;;;;;;;;5012249;28;20535;-73
2023/08/02 06:48:29;;;;;;;7.23;4.13;;;;;;;;;;5012427;28;20525;-73
2023/08/02 06:50:57;;;;;;;15.40;4.37;;;;;;;;;;5015707;28;20446;-73
2023/08/02 06:53:24;;;;;;;12.07;4.00;;;;;;;;;;5015447;28;20435;-73
2023/08/02 06:55:51;;;;;;;9.57;4.00;;;;;;;;;;5015708;28;20552;-73
2023/08/02 06:58:19;;;;;;;6.30;3.87;;;;;;;;;;5015779;28;20530;-73
2023/08/02 07:00:46;;;;;;;6.23;4.03;;;;;;;;;;5016051;28;20878;-73
2023/08/02 07:03:13;;;;;;;6.20;3.83;;;;;;;;;;5014971;28;20534;-73
2023/08/02 07:05:42;;;;;;;9.07;3.60;;;;;;;;;;5016525;28;20533;-73
2023/08/02 07:08:09;;;;;;;4.63;3.63;;;;;;;;;;5015771;28;20442;-73
2023/08/02 07:10:36;;;;;;;7.40;4.03;;;;;;;;;;5015852;28;20514;-73
2023/08/02 07:13:03;;;;;;;10.60;4.10;;;;;;;;;;5016111;28;20446;-73
2023/08/02 07:15:30;;;;;;;6.30;4.10;;;;;;;;;;5015952;28;20540;-73
2023/08/02 07:17:58;;;;;;;13.63;4.57;;;;;;;;;;5016090;28;21026;-74
2023/08/02 07:20:25;;;;;;;7.27;4.10;;;;;;;;;;5016425;28;20536;-74
2023/08/02 07:22:53;;;;;;;5.97;3.70;;;;;;;;;;5015516;28;20549;-74
2023/08/02 07:25:21;;;;;;;6.77;3.80;;;;;;;;;;5015830;28;20513;-73
2023/08/02 07:27:50;;;;;;;5.60;4.43;;;;;;;;;;5015512;28;20456;-73
2023/08/02 07:30:17;;;;;;;6.00;3.90;;;;;;;;;;5015399;28;20474;-73
2023/08/02 07:32:44;;;;;;;7.53;3.87;;;;;;;;;;5015071;28;20938;-73
2023/08/02 07:35:12;;;;;;;7.00;4.47;;;;;;;;;;5015250;28;20925;-74
2023/08/02 07:37:39;;;;;;;7.27;4.37;;;;;;;;;;5015172;28;20535;-73
2023/08/02 07:40:09;;;;;;;6.53;3.60;;;;;;;;;;5015338;28;20482;-73
2023/08/02 07:42:36;;;;;;;8.63;4.53;;;;;;;;;;5014943;28;20468;-73
2023/08/02 07:45:05;;;;;;;8.03;3.93;;;;;;;;;;5023526;28;20461;-73
2023/08/02 07:47:32;;;;;;;8.63;4.07;;;;;;;;;;5034845;28;21009;-73
2023/08/02 07:50:00;;;;;;;6.60;3.60;;;;;;;;;;5034858;28;20473;-72
2023/08/02 07:52:27;;;;;;;6.03;4.10;;;;;;;;;;5035059;28;20442;-73
2023/08/02 07:54:54;;;;;;;7.80;5.33;;;;;;;;;;5034941;28;20443;-73
2023/08/02 07:57:25;;;;;;;8.53;3.93;;;;;;;;;;5034963;28;20452;-73
2023/08/02 07:59:52;;;;;;;7.13;4.00;;;;;;;;;;5035200;28;20441;-73
2023/08/02 08:02:20;;;;;;;5.23;4.00;;;;;;;;;;5022082;28;20926;-73
2023/08/02 08:04:47;;;;;;;5.00;4.10;;;;;;;;;;5014790;28;20531;-73
2023/08/02 08:07:14;;;;;;;6.60;4.33;;;;;;;;;;5014852;28;20547;-74
2023/08/02 08:09:41;;;;;;;6.60;4.70;;;;;;;;;;5014907;28;20918;-73
2023/08/02 08:12:09;;;;;;;5.87;4.70;;;;;;;;;;5014186;28;20443;-73
2023/08/02 08:14:38;;;;;;;8.60;4.17;;;;;;;;;;5014819;28;20445;-74
2023/08/02 08:17:05;;;;;;;9.00;4.50;;;;;;;;;;5015000;28;20473;-73
2023/08/02 08:19:33;;;;;;;5.60;4.30;;;;;;;;;;5014466;28;20526;-74
2023/08/02 08:22:00;;;;;;;6.93;5.23;;;;;;;;;;5014863;28;20446;-73
2023/08/02 08:24:27;;;;;;;7.43;4.77;;;;;;;;;;5014705;28;20533;-72
2023/08/02 08:26:55;;;;;;;8.30;4.80;;;;;;;;;;5014358;28;20878;-72
2023/08/02 08:29:23;;;;;;;7.80;5.10;;;;;;;;;;5014730;28;21010;-73
2023/08/02 08:31:51;;;;;;;7.13;3.70;;;;;;;;;;5015120;28;20449;-73
2023/08/02 08:34:18;;;;;;;6.17;4.93;;;;;;;;;;5014640;28;20471;-73
2023/08/02 08:36:46;;;;;;;6.83;4.70;;;;;;;;;;5014627;28;20475;-73
2023/08/02 08:39:13;;;;;;;5.60;5.10;;;;;;;;;;5014319;28;20447;-73
2023/08/02 08:41:40;;;;;;;6.37;5.03;;;;;;;;;;5014492;28;21015;-73
2023/08/02 08:44:07;;;;;;;4.87;4.47;;;;;;;;;;5014348;28;20445;-73
2023/08/02 08:46:35;;;;;;;6.87;5.50;;;;;;;;;;5014268;28;20533;-73
2023/08/02 08:49:04;;;;;;;8.03;5.60;;;;;;;;;;5014033;28;20493;-73
2023/08/02 08:51:34;;;;;;;9.33;4.50;;;;;;;;;;5014140;28;20447;-73
2023/08/02 08:54:04;;;;;;;5.77;4.50;;;;;;;;;;5014047;28;20423;-73
2023/08/02 08:56:35;;;;;;;5.97;4.80;;;;;;;;;;5014657;28;20477;-73
2023/08/02 08:59:03;;;;;;;5.07;4.57;;;;;;;;;;5014240;28;20448;-73
2023/08/02 09:01:30;;;;;;;6.03;4.57;;;;;;;;;;5013681;28;20561;-73
2023/08/02 09:03:58;;;;;;;35.47;31.40;;;;;;;;;;5013759;28;20431;-73
2023/08/02 09:06:27;;;;;;;12.70;10.87;;;;;;;;;;5014418;28;20462;-73
2023/08/02 09:08:54;;;;;;;7.17;5.27;;;;;;;;;;5014001;28;20534;-73
2023/08/02 09:11:21;;;;;;;10.67;5.07;;;;;;;;;;5012617;28;20530;-74
2023/08/02 09:13:49;;;;;;;7.70;4.90;;;;;;;;;;5013201;28;20800;-72
2023/08/02 09:16:17;;;;;;;7.63;4.73;;;;;;;;;;5013282;28;20951;-73
2023/08/02 09:18:44;;;;;;;5.90;5.30;;;;;;;;;;5013527;28;20471;-73
2023/08/02 09:21:14;;;;;;;7.47;5.07;;;;;;;;;;5013074;28;20439;-73
2023/08/02 09:23:46;;;;;;;6.00;5.50;;;;;;;;;;5013670;28;20818;-72
2023/08/02 09:26:15;;;;;;;6.47;5.30;;;;;;;;;;5013306;28;20480;-72
2023/08/02 09:28:42;;;;;;;5.67;5.00;;;;;;;;;;5013462;28;20529;-72
2023/08/02 09:31:16;;;;;;;5.87;4.83;;;;;;;;;;5012855;28;20529;-72
2023/08/02 09:33:50;;;;;;;7.53;4.90;;;;;;;;;;5012752;28;20452;-73
2023/08/02 09:36:22;;;;;;;22.43;17.73;;;;;;;;;;5013129;28;20442;-72
2023/08/02 09:38:57;;;;;;;6.77;6.17;;;;;;;;;;5013863;28;20433;-72
2023/08/02 09:41:24;;;;;;;9.23;6.00;;;;;;;;;;5013533;28;20463;-72
2023/08/02 09:43:51;;;;;;;33.17;17.40;;;;;;;;;;5013021;28;20449;-73
2023/08/02 09:46:28;;;;;;;6.33;5.23;;;;;;;;;;5012912;28;20443;-73
2023/08/02 09:48:56;;;;;;;17.33;6.67;;;;;;;;;;5013050;28;20432;-72
2023/08/02 09:51:23;;;;;;;5.20;4.37;;;;;;;;;;5013106;28;20591;-73
2023/08/02 09:53:58;;;;;;;7.10;4.93;;;;;;;;;;5013178;28;20439;-72
2023/08/02 09:56:25;;;;;;;5.10;4.40;;;;;;;;;;5013263;28;20536;-73
2023/08/02 09:58:56;;;;;;;5.33;4.80;;;;;;;;;;5012949;28;20450;-73
2023/08/02 10:01:24;;;;;;;14.27;12.77;;;;;;;;;;5013345;28;20523;-73
2023/08/02 10:03:55;;;;;;;11.23;10.10;;;;;;;;;;5013509;28;20447;-73
2023/08/02 10:06:22;;;;;;;4.57;4.13;;;;;;;;;;5013477;28;20505;-73
2023/08/02 10:08:50;;;;;;;4.03;3.70;;;;;;;;;;5013819;28;20618;-72
2023/08/02 10:11:19;;;;;;;4.80;4.37;;;;;;;;;;5012907;28;21086;-72
2023/08/02 10:13:48;;;;;;;4.47;4.07;;;;;;;;;;5012820;28;20538;-72
2023/08/02 10:16:16;;;;;;;3.67;3.37;;;;;;;;;;5013221;28;20519;-73
2023/08/02 10:18:44;;;;;;;5.63;3.50;;;;;;;;;;5012788;28;20443;-73
2023/08/02 10:21:12;;;;;;;4.63;3.43;;;;;;;;;;5013200;28;20552;-72
2023/08/02 10:23:39;;;;;;;3.90;3.40;;;;;;;;;;5013807;28;20445;-73
2023/08/02 10:26:07;;;;;;;4.53;3.33;;;;;;;;;;5015886;28;20502;-73
2023/08/02 10:28:36;;;;;;;6.00;2.83;;;;;;;;;;5016573;28;20534;-73
2023/08/02 10:31:07;;;;;;;6.17;3.50;;;;;;;;;;5016393;28;21053;-73
2023/08/02 10:33:34;;;;;;;3.10;2.90;;;;;;;;;;5016991;28;20742;-73
2023/08/02 10:36:02;;;;;;;8.03;3.20;;;;;;;;;;5016623;28;20447;-73
2023/08/02 10:38:30;;;;;;;3.40;3.00;;;;;;;;;;5016343;28;20443;-73
2023/08/02 10:41:04;;;;;;;3.27;2.90;;;;;;;;;;5016210;28;20940;-72
2023/08/02 10:43:31;;;;;;;3.87;2.73;;;;;;;;;;5016271;28;20439;-73
2023/08/02 10:46:18;;;;;;;3.20;3.00;;;;;;;;;;5016667;28;20446;-73
2023/08/02 10:48:46;;;;;;;3.07;2.87;;;;;;;;;;5016869;28;20446;-73
2023/08/02 10:51:32;;;;;;;3.27;3.00;;;;;;;;;;5016122;28;20474;-72
2023/08/02 10:54:10;;;;;;;3.70;2.87;;;;;;;;;;5016364;28;20856;-73
2023/08/02 10:56:50;;;;;;;3.17;2.93;;;;;;;;;;5016719;28;20923;-72
2023/08/02 10:59:17;;;;;;;3.20;2.90;;;;;;;;;;5016282;28;20517;-73
2023/08/02 11:01:56;;;;;;;3.77;2.37;;;;;;;;;;5016439;28;20504;-73
2023/08/02 11:04:23;;;;;;;3.50;3.20;;;;;;;;;;5016560;28;20509;-73
2023/08/02 11:06:50;;;;;;;3.13;2.83;;;;;;;;;;5016010;28;20435;-72
2023/08/02 11:09:18;;;;;;;4.73;3.20;;;;;;;;;;5016158;28;20527;-72
2023/08/02 11:11:45;;;;;;;2.70;2.50;;;;;;;;;;5016025;28;20483;-72
2023/08/02 11:14:12;;;;;;;7.40;3.40;;;;;;;;;;5015949;28;20890;-73
2023/08/02 11:16:40;;;;;;;4.20;3.03;;;;;;;;;;5015273;28;20536;-73
2023/08/02 11:19:10;;;;;;;3.40;3.10;;;;;;;;;;5014950;28;20443;-75
2023/08/02 11:21:38;;;;;;;4.70;3.20;;;;;;;;;;5015975;28;20442;-76
2023/08/02 11:24:05;;;;;;;2.73;2.53;;;;;;;;;;5015395;28;20478;-76
2023/08/02 11:26:38;;;;;;;6.13;2.80;;;;;;;;;;5015692;28;20477;-76
2023/08/02 11:29:09;;;;;;;3.07;2.77;;;;;;;;;;5016065;28;20491;-78
2023/08/02 11:31:36;;;;;;;3.17;2.50;;;;;;;;;;5014947;28;20515;-79
2023/08/02 11:34:05;;;;;;;3.40;2.53;;;;;;;;;;5014183;28;20514;-76
2023/08/02 11:36:34;;;;;;;4.03;2.50;;;;;;;;;;5014963;28;20444;-78
2023/08/02 11:39:03;;;;;;;5.03;4.63;;;;;;;;;;5015173;28;20537;-79
2023/08/02 11:41:30;;;;;;;2.70;2.47;;;;;;;;;;5014623;28;20808;-77
2023/08/02 11:43:57;;;;;;;2.53;2.17;;;;;;;;;;5015287;28;20486;-79
2023/08/02 11:46:26;;;;;;;2.63;2.07;;;;;;;;;;5014949;28;20936;-78
2023/08/02 11:48:53;;;;;;;3.03;1.90;;;;;;;;;;5014956;28;20543;-78
2023/08/02 11:51:21;;;;;;;3.00;2.50;;;;;;;;;;5012185;28;20485;-79
2023/08/02 11:53:55;;;;;;;3.67;2.40;;;;;;;;;;4995581;28;20478;-79
2023/08/02 11:56:23;;;;;;;2.10;1.97;;;;;;;;;;4995142;28;20459;-76
2023/08/02 11:58:50;;;;;;;2.60;2.10;;;;;;;;;;4995705;28;20437;-76
2023/08/02 12:01:18;;;;;;;2.87;1.63;;;;;;;;;;4995115;28;20490;-77
2023/08/02 12:03:55;;;;;;;1.93;1.83;;;;;;;;;;5009474;28;20533;-77
2023/08/02 12:06:22;;;;;;;1.70;1.60;;;;;;;;;;5014842;28;20541;-76
2023/08/02 12:08:56;;;;;;;2.90;2.13;;;;;;;;;;5014864;28;20451;-78
2023/08/02 12:11:23;;;;;;;6.30;1.50;;;;;;;;;;5014946;28;20900;-78
2023/08/02 12:13:50;;;;;;;5.50;1.80;;;;;;;;;;5014580;28;20943;-78
2023/08/02 12:16:18;;;;;;;2.57;2.00;;;;;;;;;;5014521;28;20443;-77
2023/08/02 12:18:55;;;;;;;2.13;1.83;;;;;;;;;;5014185;28;20997;-78
2023/08/02 12:21:22;;;;;;;1.97;1.70;;;;;;;;;;5014479;28;20873;-78
2023/08/02 12:23:49;;;;;;;1.90;1.80;;;;;;;;;;5014475;28;20522;-78
2023/08/02 12:26:31;;;;;;;2.57;2.00;;;;;;;;;;5013753;28;20506;-77
2023/08/02 12:28:58;;;;;;;1.73;1.63;;;;;;;;;;5013999;28;20438;-78
2023/08/02 12:31:26;;;;;;;2.63;1.90;;;;;;;;;;5014091;28;20577;-79
2023/08/02 12:33:54;;;;;;;2.13;1.80;;;;;;;;;;5014425;28;20457;-78
2023/08/02 12:36:28;;;;;;;2.03;1.80;;;;;;;;;;5014556;28;20439;-77
2023/08/02 12:38:55;;;;;;;3.83;1.40;;;;;;;;;;5014158;28;20440;-78
2023/08/02 12:41:23;;;;;;;2.00;1.43;;;;;;;;;;5014415;28;20540;-78
2023/08/02 12:43:51;;;;;;;1.50;1.40;;;;;;;;;;5014454;28;20474;-79
2023/08/02 12:46:19;;;;;;;3.20;1.30;;;;;;;;;;5013946;28;20456;-78
2023/08/02 12:48:47;;;;;;;1.67;1.57;;;;;;;;;;5013640;28;20440;-78
2023/08/02 12:51:14;;;;;;;2.53;1.93;;;;;;;;;;5014128;28;20488;-78
2023/08/02 12:53:41;;;;;;;1.70;1.40;;;;;;;;;;5014391;28;20440;-78
2023/08/02 12:56:09;;;;;;;2.07;1.90;;;;;;;;;;5014556;28;20570;-77
2023/08/02 12:58:36;;;;;;;1.83;1.50;;;;;;;;;;5014096;28;20530;-78
2023/08/02 13:01:05;;;;;;;1.50;1.40;;;;;;;;;;5014069;28;20447;-77
2023/08/02 13:03:33;;;;;;;1.60;1.50;;;;;;;;;;5013982;28;20855;-78
2023/08/02 13:06:00;;;;;;;2.50;2.30;;;;;;;;;;5014118;28;20447;-79
2023/08/02 13:08:27;;;;;;;14.40;12.90;;;;;;;;;;5013681;28;20446;-77
2023/08/02 13:10:54;;;;;;;3.10;2.80;;;;;;;;;;5013637;28;20987;-77
2023/08/02 13:13:21;;;;;;;2.63;2.43;;;;;;;;;;5013893;28;20865;-77
2023/08/02 13:15:49;;;;;;;2.40;2.23;;;;;;;;;;5013794;28;21019;-77
2023/08/02 13:18:17;;;;;;;2.10;1.90;;;;;;;;;;5013729;28;20535;-77
2023/08/02 13:20:44;;;;;;;4.97;2.20;;;;;;;;;;5013928;28;20829;-77
2023/08/02 13:23:12;;;;;;;4.70;2.30;;;;;;;;;;5013189;28;20534;-79
2023/08/02 13:25:39;;;;;;;2.80;2.60;;;;;;;;;;5013414;28;21002;-77
2023/08/02 13:28:06;;;;;;;2.77;2.10;;;;;;;;;;5013139;28;20481;-77
2023/08/02 13:30:34;;;;;;;2.80;2.30;;;;;;;;;;5013040;28;20446;-77
2023/08/02 13:33:02;;;;;;;3.20;2.30;;;;;;;;;;5013813;28;20530;-78
2023/08/02 13:35:30;;;;;;;2.60;2.40;;;;;;;;;;5013462;28;20497;-77
2023/08/02 13:37:58;;;;;;;2.43;2.23;;;;;;;;;;5013606;28;20431;-77
2023/08/02 13:40:25;;;;;;;4.97;2.17;;;;;;;;;;5013452;28;20794;-77
2023/08/02 13:42:52;;;;;;;2.50;2.00;;;;;;;;;;5013348;28;20439;-78
2023/08/02 13:45:19;;;;;;;2.40;2.30;;;;;;;;;;5013606;28;20533;-78
2023/08/02 13:47:47;;;;;;;3.57;2.50;;;;;;;;;;5013024;28;20471;-77
2023/08/02 13:50:14;;;;;;;2.50;2.30;;;;;;;;;;5013138;28;20987;-78
2023/08/02 13:52:43;;;;;;;2.73;2.27;;;;;;;;;;5013143;28;20571;-78
2023/08/02 13:55:10;;;;;;;2.80;2.60;;;;;;;;;;5013234;28;20447;-78
2023/08/02 13:57:37;;;;;;;7.00;6.40;;;;;;;;;;5013196;28;20443;-78
2023/08/02 14:00:04;;;;;;;3.20;2.70;;;;;;;;;;5015232;28;20533;-78
2023/08/02 14:02:32;;;;;;;2.80;2.00;;;;;;;;;;5017271;28;20479;-78
2023/08/02 14:04:59;;;;;;;1.80;1.70;;;;;;;;;;5017181;28;20443;-77
2023/08/02 14:07:26;;;;;;;2.33;2.07;;;;;;;;;;5017239;28;20501;-77
2023/08/02 14:09:55;;;;;;;1.83;1.10;;;;;;;;;;5016698;28;20444;-77
2023/08/02 14:12:22;;;;;;;1.40;1.30;;;;;;;;;;5017223;28;20479;-77
2023/08/02 14:14:49;;;;;;;3.47;1.20;;;;;;;;;;5016993;28;20492;-78
2023/08/02 14:17:17;;;;;;;1.40;1.30;;;;;;;;;;5017286;28;20443;-77
2023/08/02 14:19:44;;;;;;;1.30;1.20;;;;;;;;;;5017118;28;20451;-77
2023/08/02 14:22:11;;;;;;;1.50;1.30;;;;;;;;;;5017153;28;20553;-77
2023/08/02 14:24:38;;;;;;;1.37;1.10;;;;;;;;;;5016644;28;20481;-78
2023/08/02 14:27:10;;;;;;;1.37;1.27;;;;;;;;;;5017471;28;20479;-78
2023/08/02 14:29:37;;;;;;;1.30;1.20;;;;;;;;;;5016846;28;20510;-77
2023/08/02 14:32:05;;;;;;;1.40;1.30;;;;;;;;;;5017045;28;20486;-77
2023/08/02 14:34:32;;;;;;;3.33;1.50;;;;;;;;;;5016982;28;20539;-78
2023/08/02 14:36:59;;;;;;;2.60;1.30;;;;;;;;;;5016996;28;20483;-79
2023/08/02 14:39:27;;;;;;;2.10;1.53;;;;;;;;;;5016643;28;20489;-78
2023/08/02 14:41:54;;;;;;;3.03;1.60;;;;;;;;;;5016568;28;20485;-79
2023/08/02 14:44:22;;;;;;;4.67;1.40;;;;;;;;;;5016762;28;20439;-78
2023/08/02 14:46:50;;;;;;;2.07;1.70;;;;;;;;;;5016494;28;20478;-78